sensor_id;sensor_type;location;lat;lon;timestamp;pressure;altitude;pressure_sealevel;temperature;humidity
62510;BME280;48558;48.242;11.654;2023-02-28T00:01:14;96723.22;;;-2.54;100.00
62510;BME280;48558;48.242;11.654;2023-02-28T00:05:28;96719.59;;;-2.65;100.00
62510;BME280;48558;48.242;11.654;2023-02-28T00:09:41;96726.66;;;-2.57;100.00
62510;BME280;48558;48.242;11.654;2023-02-28T00:13:53;96718.03;;;-2.66;100.00
62510;BME280;48558;48.242;11.654;2023-02-28T00:18:19;96711.00;;;-2.70;100.00
62510;BME280;48558;48.242;11.654;2023-02-28T00:22:31;96718.94;;;-2.84;100.00
62510;BME280;48558;48.242;11.654;2023-02-28T00:26:44;96711.97;;;-2.85;100.00
62510;BME280;48558;48.242;11.654;2023-02-28T00:30:56;96705.38;;;-2.88;100.00
62510;BME280;48558;48.242;11.654;2023-02-28T00:35:10;96718.31;;;-3.01;100.00
62510;BME280;48558;48.242;11.654;2023-02-28T00:39:23;96706.88;;;-2.91;100.00
62510;BME280;48558;48.242;11.654;2023-02-28T00:43:37;96707.09;;;-3.03;100.00
62510;BME280;48558;48.242;11.654;2023-02-28T00:47:51;96701.84;;;-3.18;100.00
62510;BME280;48558;48.242;11.654;2023-02-28T00:52:04;96710.97;;;-3.04;100.00
62510;BME280;48558;48.242;11.654;2023-02-28T00:56:16;96703.78;;;-3.19;100.00
62510;BME280;48558;48.242;11.654;2023-02-28T01:00:30;96702.53;;;-3.25;100.00
62510;BME280;48558;48.242;11.654;2023-02-28T01:04:52;96705.94;;;-3.28;100.00
62510;BME280;48558;48.242;11.654;2023-02-28T01:09:06;96705.75;;;-3.16;100.00
62510;BME280;48558;48.242;11.654;2023-02-28T01:13:19;96692.03;;;-3.30;100.00
62510;BME280;48558;48.242;11.654;2023-02-28T01:17:42;96691.59;;;-3.32;100.00
62510;BME280;48558;48.242;11.654;2023-02-28T01:22:05;96684.91;;;-3.41;100.00
62510;BME280;48558;48.242;11.654;2023-02-28T01:26:20;96694.41;;;-3.25;100.00
62510;BME280;48558;48.242;11.654;2023-02-28T01:30:39;96692.25;;;-3.42;100.00
62510;BME280;48558;48.242;11.654;2023-02-28T01:34:51;96676.22;;;-3.54;100.00
62510;BME280;48558;48.242;11.654;2023-02-28T01:39:04;96677.47;;;-3.48;100.00
62510;BME280;48558;48.242;11.654;2023-02-28T01:47:36;96665.03;;;-3.79;100.00
62510;BME280;48558;48.242;11.654;2023-02-28T01:51:53;96681.31;;;-3.49;100.00
62510;BME280;48558;48.242;11.654;2023-02-28T01:56:09;96675.72;;;-3.59;100.00
62510;BME280;48558;48.242;11.654;2023-02-28T02:00:26;96677.19;;;-3.66;100.00
62510;BME280;48558;48.242;11.654;2023-02-28T02:09:15;96660.53;;;-3.71;100.00
62510;BME280;48558;48.242;11.654;2023-02-28T02:18:34;96670.28;;;-3.63;100.00
62510;BME280;48558;48.242;11.654;2023-02-28T02:37:21;96664.41;;;-3.69;100.00
62510;BME280;48558;48.242;11.654;2023-02-28T02:41:51;96669.66;;;-3.79;100.00
62510;BME280;48558;48.242;11.654;2023-02-28T02:46:21;96664.63;;;-3.81;100.00
62510;BME280;48558;48.242;11.654;2023-02-28T02:50:43;96656.22;;;-3.76;100.00
62510;BME280;48558;48.242;11.654;2023-02-28T02:54:59;96669.34;;;-3.74;100.00
62510;BME280;48558;48.242;11.654;2023-02-28T02:59:16;96659.13;;;-3.84;100.00
62510;BME280;48558;48.242;11.654;2023-02-28T03:03:34;96649.28;;;-3.73;100.00
62510;BME280;48558;48.242;11.654;2023-02-28T03:07:46;96664.78;;;-3.70;100.00
62510;BME280;48558;48.242;11.654;2023-02-28T03:11:59;96659.34;;;-3.74;100.00
62510;BME280;48558;48.242;11.654;2023-02-28T03:21:06;96658.47;;;-3.78;100.00
62510;BME280;48558;48.242;11.654;2023-02-28T03:25:53;96661.28;;;-3.71;100.00
62510;BME280;48558;48.242;11.654;2023-02-28T03:30:24;96659.78;;;-3.68;100.00
62510;BME280;48558;48.242;11.654;2023-02-28T03:34:46;96648.34;;;-3.84;100.00
62510;BME280;48558;48.242;11.654;2023-02-28T03:39:14;96655.00;;;-3.55;100.00
62510;BME280;48558;48.242;11.654;2023-02-28T03:43:32;96657.88;;;-3.68;100.00
62510;BME280;48558;48.242;11.654;2023-02-28T03:47:52;96665.41;;;-3.54;100.00
62510;BME280;48558;48.242;11.654;2023-02-28T03:52:09;96658.22;;;-3.46;100.00
62510;BME280;48558;48.242;11.654;2023-02-28T03:56:32;96662.63;;;-3.35;100.00
62510;BME280;48558;48.242;11.654;2023-02-28T04:00:54;96676.06;;;-3.38;100.00
62510;BME280;48558;48.242;11.654;2023-02-28T04:05:11;96676.44;;;-3.14;100.00
62510;BME280;48558;48.242;11.654;2023-02-28T04:09:23;96662.41;;;-3.23;100.00
62510;BME280;48558;48.242;11.654;2023-02-28T04:13:36;96673.31;;;-3.16;100.00
62510;BME280;48558;48.242;11.654;2023-02-28T04:17:48;96664.25;;;-3.01;100.00
62510;BME280;48558;48.242;11.654;2023-02-28T04:22:01;96676.69;;;-2.96;100.00
62510;BME280;48558;48.242;11.654;2023-02-28T04:26:13;96677.66;;;-2.81;100.00
62510;BME280;48558;48.242;11.654;2023-02-28T04:30:26;96693.88;;;-2.81;100.00
62510;BME280;48558;48.242;11.654;2023-02-28T04:34:38;96703.28;;;-2.72;100.00
62510;BME280;48558;48.242;11.654;2023-02-28T04:38:51;96691.91;;;-2.55;100.00
62510;BME280;48558;48.242;11.654;2023-02-28T04:43:04;96696.81;;;-2.64;100.00
62510;BME280;48558;48.242;11.654;2023-02-28T04:47:17;96679.38;;;-2.66;100.00
62510;BME280;48558;48.242;11.654;2023-02-28T04:51:29;96698.88;;;-2.54;100.00
62510;BME280;48558;48.242;11.654;2023-02-28T04:55:42;96698.81;;;-2.57;100.00
62510;BME280;48558;48.242;11.654;2023-02-28T04:59:55;96706.13;;;-2.61;100.00
62510;BME280;48558;48.242;11.654;2023-02-28T05:04:08;96707.34;;;-2.55;100.00
62510;BME280;48558;48.242;11.654;2023-02-28T05:08:21;96692.16;;;-2.67;100.00
62510;BME280;48558;48.242;11.654;2023-02-28T05:12:34;96705.03;;;-2.53;100.00
62510;BME280;48558;48.242;11.654;2023-02-28T05:16:46;96721.75;;;-2.48;100.00
62510;BME280;48558;48.242;11.654;2023-02-28T05:20:59;96730.13;;;-2.56;100.00
62510;BME280;48558;48.242;11.654;2023-02-28T05:25:18;96720.22;;;-2.45;100.00
62510;BME280;48558;48.242;11.654;2023-02-28T05:29:35;96723.16;;;-2.57;100.00
62510;BME280;48558;48.242;11.654;2023-02-28T05:33:53;96722.84;;;-2.52;100.00
62510;BME280;48558;48.242;11.654;2023-02-28T05:38:06;96719.59;;;-2.65;100.00
62510;BME280;48558;48.242;11.654;2023-02-28T05:42:19;96715.13;;;-2.50;100.00
62510;BME280;48558;48.242;11.654;2023-02-28T05:46:31;96715.78;;;-2.60;100.00
62510;BME280;48558;48.242;11.654;2023-02-28T05:50:44;96717.34;;;-2.59;100.00
62510;BME280;48558;48.242;11.654;2023-02-28T05:54:58;96724.31;;;-2.58;100.00
62510;BME280;48558;48.242;11.654;2023-02-28T05:59:13;96716.94;;;-2.61;100.00
62510;BME280;48558;48.242;11.654;2023-02-28T06:03:26;96735.66;;;-2.49;100.00
62510;BME280;48558;48.242;11.654;2023-02-28T06:07:39;96729.03;;;-2.52;100.00
62510;BME280;48558;48.242;11.654;2023-02-28T06:11:52;96717.03;;;-2.54;100.00
62510;BME280;48558;48.242;11.654;2023-02-28T06:16:04;96735.25;;;-2.51;100.00
62510;BME280;48558;48.242;11.654;2023-02-28T06:20:17;96735.28;;;-2.44;100.00
62510;BME280;48558;48.242;11.654;2023-02-28T06:24:30;96756.94;;;-2.44;100.00
62510;BME280;48558;48.242;11.654;2023-02-28T06:28:43;96748.06;;;-2.45;100.00
62510;BME280;48558;48.242;11.654;2023-02-28T06:32:55;96747.59;;;-2.50;100.00
62510;BME280;48558;48.242;11.654;2023-02-28T06:37:08;96746.69;;;-2.61;100.00
62510;BME280;48558;48.242;11.654;2023-02-28T06:41:25;96768.66;;;-2.37;100.00
62510;BME280;48558;48.242;11.654;2023-02-28T06:45:43;96767.16;;;-2.31;100.00
62510;BME280;48558;48.242;11.654;2023-02-28T06:49:56;96757.91;;;-2.30;100.00
62510;BME280;48558;48.242;11.654;2023-02-28T06:54:08;96755.00;;;-2.14;100.00
62510;BME280;48558;48.242;11.654;2023-02-28T06:58:27;96775.88;;;-2.14;100.00
62510;BME280;48558;48.242;11.654;2023-02-28T07:02:39;96773.41;;;-1.97;100.00
62510;BME280;48558;48.242;11.654;2023-02-28T07:06:52;96791.03;;;-1.77;100.00
62510;BME280;48558;48.242;11.654;2023-02-28T07:11:13;96797.25;;;-1.73;100.00
62510;BME280;48558;48.242;11.654;2023-02-28T07:15:36;96801.25;;;-1.60;100.00
62510;BME280;48558;48.242;11.654;2023-02-28T07:19:53;96790.16;;;-1.48;100.00
62510;BME280;48558;48.242;11.654;2023-02-28T07:24:06;96787.78;;;-1.56;100.00
62510;BME280;48558;48.242;11.654;2023-02-28T07:28:18;96787.94;;;-1.38;100.00
62510;BME280;48558;48.242;11.654;2023-02-28T07:32:40;96789.22;;;-1.22;100.00
62510;BME280;48558;48.242;11.654;2023-02-28T07:36:55;96788.28;;;-1.40;100.00
62510;BME280;48558;48.242;11.654;2023-02-28T07:41:10;96785.28;;;-1.31;100.00
62510;BME280;48558;48.242;11.654;2023-02-28T07:45:22;96797.19;;;-1.39;100.00
62510;BME280;48558;48.242;11.654;2023-02-28T07:49:36;96796.34;;;-1.07;100.00
62510;BME280;48558;48.242;11.654;2023-02-28T07:53:48;96804.16;;;-0.98;100.00
62510;BME280;48558;48.242;11.654;2023-02-28T07:58:11;96777.66;;;-1.15;100.00
62510;BME280;48558;48.242;11.654;2023-02-28T08:02:24;96804.19;;;-0.95;100.00
62510;BME280;48558;48.242;11.654;2023-02-28T08:06:36;96801.97;;;-0.82;100.00
62510;BME280;48558;48.242;11.654;2023-02-28T08:10:49;96795.63;;;-0.97;100.00
62510;BME280;48558;48.242;11.654;2023-02-28T08:15:02;96807.50;;;-0.68;100.00
62510;BME280;48558;48.242;11.654;2023-02-28T08:19:14;96805.41;;;-0.89;100.00
62510;BME280;48558;48.242;11.654;2023-02-28T08:23:27;96809.94;;;-0.52;100.00
62510;BME280;48558;48.242;11.654;2023-02-28T08:27:39;96812.66;;;-0.49;100.00
62510;BME280;48558;48.242;11.654;2023-02-28T08:31:52;96811.63;;;-0.27;100.00
62510;BME280;48558;48.242;11.654;2023-02-28T08:36:06;96818.56;;;-0.36;100.00
62510;BME280;48558;48.242;11.654;2023-02-28T08:40:20;96822.91;;;-0.18;100.00
62510;BME280;48558;48.242;11.654;2023-02-28T08:44:42;96827.72;;;0.10;100.00
62510;BME280;48558;48.242;11.654;2023-02-28T08:48:56;96824.22;;;0.06;100.00
62510;BME280;48558;48.242;11.654;2023-02-28T08:53:12;96834.78;;;0.29;100.00
62510;BME280;48558;48.242;11.654;2023-02-28T08:57:24;96819.53;;;0.03;100.00
62510;BME280;48558;48.242;11.654;2023-02-28T09:01:40;96825.91;;;0.49;100.00
62510;BME280;48558;48.242;11.654;2023-02-28T09:05:59;96829.91;;;1.15;100.00
62510;BME280;48558;48.242;11.654;2023-02-28T09:10:12;96838.38;;;0.61;100.00
62510;BME280;48558;48.242;11.654;2023-02-28T09:14:24;96823.28;;;1.06;100.00
62510;BME280;48558;48.242;11.654;2023-02-28T09:18:38;96839.97;;;1.78;100.00
62510;BME280;48558;48.242;11.654;2023-02-28T09:22:50;96825.09;;;2.11;100.00
62510;BME280;48558;48.242;11.654;2023-02-28T09:27:03;96838.44;;;1.63;100.00
62510;BME280;48558;48.242;11.654;2023-02-28T09:31:23;96844.66;;;1.64;100.00
62510;BME280;48558;48.242;11.654;2023-02-28T09:35:37;96846.63;;;1.38;100.00
62510;BME280;48558;48.242;11.654;2023-02-28T09:39:50;96856.22;;;2.21;100.00
62510;BME280;48558;48.242;11.654;2023-02-28T09:44:04;96866.78;;;1.90;100.00
62510;BME280;48558;48.242;11.654;2023-02-28T09:48:21;96862.16;;;1.87;100.00
62510;BME280;48558;48.242;11.654;2023-02-28T09:52:36;96864.50;;;1.43;100.00
62510;BME280;48558;48.242;11.654;2023-02-28T10:06:28;96874.88;;;2.33;98.14
62510;BME280;48558;48.242;11.654;2023-02-28T10:10:51;96874.50;;;2.31;100.00
62510;BME280;48558;48.242;11.654;2023-02-28T10:15:13;96875.09;;;2.70;98.77
62510;BME280;48558;48.242;11.654;2023-02-28T10:24:50;96865.38;;;2.69;96.54
62510;BME280;48558;48.242;11.654;2023-02-28T10:28:43;96869.53;;;3.49;91.78
62510;BME280;48558;48.242;11.654;2023-02-28T10:32:56;96863.50;;;3.21;90.11
62510;BME280;48558;48.242;11.654;2023-02-28T10:37:09;96873.06;;;3.46;89.63
62510;BME280;48558;48.242;11.654;2023-02-28T10:46:01;96878.88;;;3.52;92.16
62510;BME280;48558;48.242;11.654;2023-02-28T10:50:43;96878.66;;;3.32;86.68
62510;BME280;48558;48.242;11.654;2023-02-28T10:55:15;96885.38;;;4.47;84.16
62510;BME280;48558;48.242;11.654;2023-02-28T10:59:37;96876.69;;;4.85;79.67
62510;BME280;48558;48.242;11.654;2023-02-28T11:03:50;96876.81;;;4.41;82.55
62510;BME280;48558;48.242;11.654;2023-02-28T11:08:16;96884.63;;;5.06;79.20
62510;BME280;48558;48.242;11.654;2023-02-28T11:17:13;96889.56;;;4.55;84.90
62510;BME280;48558;48.242;11.654;2023-02-28T11:21:31;96893.75;;;4.96;78.98
62510;BME280;48558;48.242;11.654;2023-02-28T11:26:01;96881.22;;;5.75;78.39
62510;BME280;48558;48.242;11.654;2023-02-28T11:34:40;96873.69;;;4.43;85.61
62510;BME280;48558;48.242;11.654;2023-02-28T11:39:17;96870.03;;;4.53;74.40
62510;BME280;48558;48.242;11.654;2023-02-28T11:43:57;96860.41;;;5.78;73.99
62510;BME280;48558;48.242;11.654;2023-02-28T11:48:19;96857.25;;;5.79;72.02
62510;BME280;48558;48.242;11.654;2023-02-28T12:06:32;96853.47;;;4.97;77.22
62510;BME280;48558;48.242;11.654;2023-02-28T12:11:26;96847.38;;;4.18;78.77
62510;BME280;48558;48.242;11.654;2023-02-28T12:20:44;96835.13;;;5.44;73.12
62510;BME280;48558;48.242;11.654;2023-02-28T12:30:04;96833.59;;;6.12;70.86
62510;BME280;48558;48.242;11.654;2023-02-28T12:34:34;96832.28;;;5.97;74.88
62510;BME280;48558;48.242;11.654;2023-02-28T12:39:04;96845.69;;;5.68;69.23
62510;BME280;48558;48.242;11.654;2023-02-28T12:43:26;96832.34;;;5.94;71.63
62510;BME280;48558;48.242;11.654;2023-02-28T12:47:52;96836.19;;;4.06;74.02
62510;BME280;48558;48.242;11.654;2023-02-28T12:52:24;96830.84;;;3.95;81.56
62510;BME280;48558;48.242;11.654;2023-02-28T13:01:55;96813.31;;;4.23;81.57
62510;BME280;48558;48.242;11.654;2023-02-28T13:10:57;96816.91;;;5.07;78.62
62510;BME280;48558;48.242;11.654;2023-02-28T13:15:21;96813.34;;;5.10;76.62
62510;BME280;48558;48.242;11.654;2023-02-28T13:19:43;96821.75;;;4.69;75.71
62510;BME280;48558;48.242;11.654;2023-02-28T13:24:08;96821.25;;;4.78;82.21
62510;BME280;48558;48.242;11.654;2023-02-28T13:33:29;96814.44;;;4.29;84.37
62510;BME280;48558;48.242;11.654;2023-02-28T13:37:47;96815.59;;;5.42;83.07
62510;BME280;48558;48.242;11.654;2023-02-28T13:51:36;96805.84;;;5.87;68.01
62510;BME280;48558;48.242;11.654;2023-02-28T13:56:22;96820.25;;;6.11;70.82
62510;BME280;48558;48.242;11.654;2023-02-28T14:00:44;96821.34;;;4.71;73.63
62510;BME280;48558;48.242;11.654;2023-02-28T14:05:17;96820.88;;;4.46;85.51
62510;BME280;48558;48.242;11.654;2023-02-28T14:10:32;96820.66;;;5.66;73.08
62510;BME280;48558;48.242;11.654;2023-02-28T14:15:49;96827.75;;;7.05;66.74
62510;BME280;48558;48.242;11.654;2023-02-28T14:20:15;96809.03;;;6.25;66.12
62510;BME280;48558;48.242;11.654;2023-02-28T14:34:04;96819.06;;;4.66;78.91
62510;BME280;48558;48.242;11.654;2023-02-28T14:38:36;96817.09;;;4.36;82.38
62510;BME280;48558;48.242;11.654;2023-02-28T14:43:20;96814.50;;;3.88;84.78
62510;BME280;48558;48.242;11.654;2023-02-28T14:47:35;96819.06;;;3.61;94.26
62510;BME280;48558;48.242;11.654;2023-02-28T14:51:50;96813.63;;;3.61;97.24
62510;BME280;48558;48.242;11.654;2023-02-28T14:56:27;96811.72;;;3.95;90.11
62510;BME280;48558;48.242;11.654;2023-02-28T15:00:48;96812.75;;;4.05;94.27
62510;BME280;48558;48.242;11.654;2023-02-28T15:09:38;96811.44;;;4.16;88.30
62510;BME280;48558;48.242;11.654;2023-02-28T15:13:53;96804.91;;;4.10;92.43
62510;BME280;48558;48.242;11.654;2023-02-28T15:22:56;96811.59;;;3.69;91.51
62510;BME280;48558;48.242;11.654;2023-02-28T15:27:16;96805.34;;;3.68;93.95
62510;BME280;48558;48.242;11.654;2023-02-28T15:31:46;96821.16;;;3.87;90.59
62510;BME280;48558;48.242;11.654;2023-02-28T15:36:18;96819.13;;;3.54;93.83
62510;BME280;48558;48.242;11.654;2023-02-28T15:40:41;96816.13;;;3.41;90.99
62510;BME280;48558;48.242;11.654;2023-02-28T15:44:55;96821.75;;;3.20;96.15
62510;BME280;48558;48.242;11.654;2023-02-28T15:49:19;96809.59;;;3.32;96.55
62510;BME280;48558;48.242;11.654;2023-02-28T15:53:36;96819.31;;;3.33;96.81
62510;BME280;48558;48.242;11.654;2023-02-28T15:57:53;96814.34;;;3.21;99.56
62510;BME280;48558;48.242;11.654;2023-02-28T16:02:20;96821.41;;;3.15;98.18
62510;BME280;48558;48.242;11.654;2023-02-28T16:10:54;96817.72;;;2.84;100.00
62510;BME280;48558;48.242;11.654;2023-02-28T16:15:16;96829.47;;;2.77;100.00
62510;BME280;48558;48.242;11.654;2023-02-28T16:19:31;96830.28;;;2.71;100.00
62510;BME280;48558;48.242;11.654;2023-02-28T16:23:45;96824.09;;;2.60;100.00
62510;BME280;48558;48.242;11.654;2023-02-28T16:27:59;96824.94;;;2.50;100.00
62510;BME280;48558;48.242;11.654;2023-02-28T16:32:15;96819.50;;;2.43;100.00
62510;BME280;48558;48.242;11.654;2023-02-28T16:36:29;96827.00;;;2.21;100.00
62510;BME280;48558;48.242;11.654;2023-02-28T16:40:41;96838.75;;;2.07;100.00
62510;BME280;48558;48.242;11.654;2023-02-28T16:44:55;96818.13;;;1.92;100.00
62510;BME280;48558;48.242;11.654;2023-02-28T16:49:12;96826.31;;;1.89;100.00
62510;BME280;48558;48.242;11.654;2023-02-28T16:53:25;96836.47;;;1.78;100.00
62510;BME280;48558;48.242;11.654;2023-02-28T16:57:38;96838.44;;;1.56;100.00
62510;BME280;48558;48.242;11.654;2023-02-28T17:01:51;96835.72;;;1.60;100.00
62510;BME280;48558;48.242;11.654;2023-02-28T17:06:04;96848.19;;;1.32;100.00
62510;BME280;48558;48.242;11.654;2023-02-28T17:10:25;96858.69;;;1.41;100.00
62510;BME280;48558;48.242;11.654;2023-02-28T17:14:38;96857.13;;;1.19;100.00
62510;BME280;48558;48.242;11.654;2023-02-28T17:18:52;96861.75;;;0.94;100.00
62510;BME280;48558;48.242;11.654;2023-02-28T17:23:06;96864.09;;;1.02;100.00
62510;BME280;48558;48.242;11.654;2023-02-28T17:27:19;96870.63;;;0.73;100.00
62510;BME280;48558;48.242;11.654;2023-02-28T17:31:31;96874.50;;;0.58;100.00
62510;BME280;48558;48.242;11.654;2023-02-28T17:35:45;96889.22;;;0.57;100.00
62510;BME280;48558;48.242;11.654;2023-02-28T17:39:57;96867.88;;;0.59;100.00
62510;BME280;48558;48.242;11.654;2023-02-28T17:44:10;96867.63;;;1.06;100.00
62510;BME280;48558;48.242;11.654;2023-02-28T17:48:22;96866.41;;;0.93;100.00
62510;BME280;48558;48.242;11.654;2023-02-28T17:52:36;96876.56;;;1.14;100.00
62510;BME280;48558;48.242;11.654;2023-02-28T17:56:48;96875.81;;;1.31;100.00
62510;BME280;48558;48.242;11.654;2023-02-28T18:01:01;96867.25;;;1.39;100.00
62510;BME280;48558;48.242;11.654;2023-02-28T18:05:15;96887.47;;;1.49;100.00
62510;BME280;48558;48.242;11.654;2023-02-28T18:09:28;96869.56;;;1.48;100.00
62510;BME280;48558;48.242;11.654;2023-02-28T18:13:40;96871.91;;;1.50;100.00
62510;BME280;48558;48.242;11.654;2023-02-28T18:17:53;96877.34;;;1.50;100.00
62510;BME280;48558;48.242;11.654;2023-02-28T18:22:05;96874.63;;;1.64;100.00
62510;BME280;48558;48.242;11.654;2023-02-28T18:26:19;96878.91;;;1.65;100.00
62510;BME280;48558;48.242;11.654;2023-02-28T18:30:35;96876.97;;;1.62;100.00
62510;BME280;48558;48.242;11.654;2023-02-28T18:34:48;96878.91;;;1.65;100.00
62510;BME280;48558;48.242;11.654;2023-02-28T18:39:01;96869.94;;;1.61;100.00
62510;BME280;48558;48.242;11.654;2023-02-28T18:43:13;96869.56;;;1.66;100.00
62510;BME280;48558;48.242;11.654;2023-02-28T18:47:25;96865.66;;;1.56;100.00
62510;BME280;48558;48.242;11.654;2023-02-28T18:51:38;96873.44;;;1.79;100.00
62510;BME280;48558;48.242;11.654;2023-02-28T18:55:51;96869.97;;;1.64;100.00
62510;BME280;48558;48.242;11.654;2023-02-28T19:00:04;96868.00;;;1.72;100.00
62510;BME280;48558;48.242;11.654;2023-02-28T19:04:20;96876.56;;;1.60;100.00
62510;BME280;48558;48.242;11.654;2023-02-28T19:08:32;96868.81;;;1.51;100.00
62510;BME280;48558;48.242;11.654;2023-02-28T19:12:45;96879.28;;;1.53;100.00
62510;BME280;48558;48.242;11.654;2023-02-28T19:16:58;96878.13;;;1.50;100.00
62510;BME280;48558;48.242;11.654;2023-02-28T19:21:13;96878.13;;;1.47;100.00
62510;BME280;48558;48.242;11.654;2023-02-28T19:25:26;96886.69;;;1.56;100.00
62510;BME280;48558;48.242;11.654;2023-02-28T19:29:39;96864.53;;;1.39;100.00
62510;BME280;48558;48.242;11.654;2023-02-28T19:34:02;96882.03;;;1.45;100.00
62510;BME280;48558;48.242;11.654;2023-02-28T19:38:15;96873.47;;;1.36;100.00
62510;BME280;48558;48.242;11.654;2023-02-28T19:42:27;96880.09;;;1.46;100.00
62510;BME280;48558;48.242;11.654;2023-02-28T19:46:44;96872.69;;;1.36;100.00
62510;BME280;48558;48.242;11.654;2023-02-28T19:51:01;96881.63;;;1.36;100.00
62510;BME280;48558;48.242;11.654;2023-02-28T19:55:16;96868.00;;;1.22;100.00
62510;BME280;48558;48.242;11.654;2023-02-28T19:59:29;96860.25;;;1.28;100.00
62510;BME280;48558;48.242;11.654;2023-02-28T20:04:00;96867.25;;;1.32;100.00
62510;BME280;48558;48.242;11.654;2023-02-28T20:08:20;96872.31;;;1.37;100.00
62510;BME280;48558;48.242;11.654;2023-02-28T20:12:32;96868.81;;;1.44;100.00
62510;BME280;48558;48.242;11.654;2023-02-28T20:16:45;96861.78;;;1.32;100.00
62510;BME280;48558;48.242;11.654;2023-02-28T20:21:02;96878.91;;;1.29;100.00
62510;BME280;48558;48.242;11.654;2023-02-28T20:25:25;96854.78;;;1.21;100.00
62510;BME280;48558;48.242;11.654;2023-02-28T20:29:38;96868.78;;;1.30;100.00
62510;BME280;48558;48.242;11.654;2023-02-28T20:33:51;96869.56;;;1.27;100.00
62510;BME280;48558;48.242;11.654;2023-02-28T20:38:03;96864.50;;;1.25;100.00
62510;BME280;48558;48.242;11.654;2023-02-28T20:42:16;96863.75;;;1.21;100.00
62510;BME280;48558;48.242;11.654;2023-02-28T20:46:29;96866.47;;;1.28;100.00
62510;BME280;48558;48.242;11.654;2023-02-28T20:50:50;96868.03;;;1.43;100.00
62510;BME280;48558;48.242;11.654;2023-02-28T20:55:07;96863.38;;;1.26;100.00
62510;BME280;48558;48.242;11.654;2023-02-28T20:59:20;96856.34;;;1.32;100.00
62510;BME280;48558;48.242;11.654;2023-02-28T21:03:33;96865.69;;;1.24;100.00
62510;BME280;48558;48.242;11.654;2023-02-28T21:07:45;96857.91;;;1.23;100.00
62510;BME280;48558;48.242;11.654;2023-02-28T21:11:58;96869.16;;;1.25;100.00
62510;BME280;48558;48.242;11.654;2023-02-28T21:16:12;96860.63;;;1.19;100.00
62510;BME280;48558;48.242;11.654;2023-02-28T21:20:26;96848.56;;;1.17;100.00
62510;BME280;48558;48.242;11.654;2023-02-28T21:24:39;96855.19;;;1.19;100.00
62510;BME280;48558;48.242;11.654;2023-02-28T21:28:54;96865.66;;;1.31;100.00
62510;BME280;48558;48.242;11.654;2023-02-28T21:33:08;96865.69;;;1.24;100.00
62510;BME280;48558;48.242;11.654;2023-02-28T21:37:21;96867.22;;;1.36;100.00
62510;BME280;48558;48.242;11.654;2023-02-28T21:41:39;96852.06;;;1.17;100.00
62510;BME280;48558;48.242;11.654;2023-02-28T21:45:52;96845.06;;;1.34;100.00
62510;BME280;48558;48.242;11.654;2023-02-28T21:50:05;96843.13;;;1.31;100.00
62510;BME280;48558;48.242;11.654;2023-02-28T21:54:18;96841.56;;;1.19;100.00
62510;BME280;48558;48.242;11.654;2023-02-28T21:58:31;96834.56;;;1.25;100.00
62510;BME280;48558;48.242;11.654;2023-02-28T22:02:43;96843.13;;;1.10;100.00
62510;BME280;48558;48.242;11.654;2023-02-28T22:06:56;96837.28;;;1.11;100.00
62510;BME280;48558;48.242;11.654;2023-02-28T22:11:09;96832.22;;;1.13;100.00
62510;BME280;48558;48.242;11.654;2023-02-28T22:15:23;96848.19;;;1.18;100.00
62510;BME280;48558;48.242;11.654;2023-02-28T22:19:35;96845.44;;;1.18;100.00
62510;BME280;48558;48.242;11.654;2023-02-28T22:23:48;96849.75;;;1.26;100.00
62510;BME280;48558;48.242;11.654;2023-02-28T22:28:01;96847.78;;;1.16;100.00
62510;BME280;48558;48.242;11.654;2023-02-28T22:32:13;96843.53;;;1.15;100.00
62510;BME280;48558;48.242;11.654;2023-02-28T22:36:27;96856.34;;;1.32;100.00
62510;BME280;48558;48.242;11.654;2023-02-28T22:40:40;96857.13;;;1.22;100.00
62510;BME280;48558;48.242;11.654;2023-02-28T22:44:53;96843.91;;;1.17;100.00
62510;BME280;48558;48.242;11.654;2023-02-28T22:49:06;96847.00;;;1.12;100.00
62510;BME280;48558;48.242;11.654;2023-02-28T22:53:18;96838.06;;;1.08;100.00
62510;BME280;48558;48.242;11.654;2023-02-28T22:57:30;96841.97;;;1.14;100.00
62510;BME280;48558;48.242;11.654;2023-02-28T23:01:53;96838.44;;;1.14;100.00
62510;BME280;48558;48.242;11.654;2023-02-28T23:06:27;96850.91;;;1.08;100.00
62510;BME280;48558;48.242;11.654;2023-02-28T23:10:42;96851.69;;;1.15;100.00
62510;BME280;48558;48.242;11.654;2023-02-28T23:14:55;96850.13;;;1.14;100.00
62510;BME280;48558;48.242;11.654;2023-02-28T23:19:13;96846.22;;;1.19;100.00
62510;BME280;48558;48.242;11.654;2023-02-28T23:23:28;96842.34;;;1.16;100.00
62510;BME280;48558;48.242;11.654;2023-02-28T23:27:41;96838.47;;;1.17;100.00
62510;BME280;48558;48.242;11.654;2023-02-28T23:31:53;96840.41;;;1.17;100.00
62510;BME280;48558;48.242;11.654;2023-02-28T23:36:09;96839.63;;;1.16;100.00
62510;BME280;48558;48.242;11.654;2023-02-28T23:40:23;96841.97;;;1.11;100.00
62510;BME280;48558;48.242;11.654;2023-02-28T23:44:35;96841.19;;;1.10;100.00
62510;BME280;48558;48.242;11.654;2023-02-28T23:48:48;96842.34;;;1.16;100.00
62510;BME280;48558;48.242;11.654;2023-02-28T23:53:00;96838.84;;;1.02;100.00
62510;BME280;48558;48.242;11.654;2023-02-28T23:57:23;96820.97;;;0.97;100.00
